Accueil
METAR-TAF:

METAR-TAF

Aéroports :

Aéroport international de Khartoum

Khartoum, Soudan

latitude: 15-36N, longitude: 032-33E, altitude: 382 m

Observation

Le bulletin a été fait il y a 24 minutes, à 01:30 UTC
Vent 5 kt de est
Température 30°C
Humidité 33%
Pression 1010 hPa
Visibilité 10 km ou plus
pas de nuages en-dessous de 1500 mètres et pas de cumulonimbus.

METAR: HSSS 220130Z 08005KT CAVOK 30/12 Q1010 NOSIG

Heure: 04:54 (01:54 UTC)

Prévision

Le bulletin a été fait il y a 2 heures et 54 minutes, à 23:00 UTC
Prévision valable du 22 à 00 UTC au 23 à 06 UTC
Vent 8 kt de nord avec des rafales jusqu'à 18 kt
Visibilité 10 km ou plus
pas de nuages en-dessous de 1500 mètres et pas de cumulonimbus.
Probabilité 30% :
Temporairement
du 22 à 00 UTC au 22 à 04 UTC
Visibilité: 6000 m
Nuages fragmentés à une hauteur de 14000 ft
averses de pluie

TAF: HSSS 212300Z 2200/2306 36008G18KT CAVOK PROB30 TEMPO 2200/2204 6000 SHRA BKN140

Observations et prévisions météorologiques de plus de 4000 aéroports (messages METAR et TAF).

Les stations disponibles sont représentées par des disques jaunes et rouges sur la carte.

Passer la souris dessus pour voir le nom de la station.

Cliquer dessus pour voir les observations et prévisions météorologiques.

Pour changer de carte: cliquez sur les boutons verts avec une croix noire pour zoomer, sur le bouton vert avec un tiret pour effectuer un zoom arrière, ou sur les flèches vertes pour les cartes adjacentes.


METAR-TAF: